Time;durP1;ratioP1;P1;durP2;ratioP2;P2;SDS_P1;SDS_P2;PMS_P1;PMS_P2;Temp;Humidity;BMP_temperature;BMP_pressure;BME280_temperature;BME280_humidity;BME280_pressure;Samples;Min_cycle;Max_cycle;Signal;HPM_P1;HPM_P2
2024/04/13 00:01:09;;;;;;;13.00;6.17;;;10.00;99.90;;;;;;5441177;26;20460;-70
2024/04/13 00:03:41;;;;;;;12.37;5.93;;;10.00;99.90;;;;;;5443960;26;20525;-71
2024/04/13 00:06:09;;;;;;;13.53;6.97;;;9.90;99.90;;;;;;5444168;26;20520;-70
2024/04/13 00:08:39;;;;;;;13.93;6.87;;;9.80;99.90;;;;;;5443601;26;20476;-70
2024/04/13 00:11:08;;;;;;;11.83;6.27;;;9.60;99.90;;;;;;5443699;26;20543;-70
2024/04/13 00:13:38;;;;;;;11.50;6.77;;;9.50;99.90;;;;;;5445763;26;20581;-70
2024/04/13 00:16:08;;;;;;;14.43;7.30;;;9.40;99.90;;;;;;5447622;26;20469;-70
2024/04/13 00:18:38;;;;;;;10.97;6.60;;;9.40;99.90;;;;;;5447239;26;20473;-70
2024/04/13 00:21:05;;;;;;;13.63;6.60;;;9.40;99.90;;;;;;5448019;26;20472;-71
2024/04/13 00:23:35;;;;;;;12.10;6.43;;;9.40;99.90;;;;;;5438059;26;20481;-71
2024/04/13 00:26:03;;;;;;;14.30;6.87;;;9.40;99.90;;;;;;5447662;26;20565;-70
2024/04/13 00:28:33;;;;;;;14.80;7.33;;;9.40;99.90;;;;;;5447629;26;21099;-70
2024/04/13 00:31:02;;;;;;;13.30;7.80;;;9.20;99.90;;;;;;5447876;26;20808;-71
2024/04/13 00:33:38;;;;;;;14.80;7.30;;;9.10;99.90;;;;;;5447190;26;20509;-70
2024/04/13 00:36:06;;;;;;;11.90;7.37;;;9.00;99.90;;;;;;5447166;26;20472;-70
2024/04/13 00:38:36;;;;;;;14.83;7.60;;;9.20;99.90;;;;;;5446984;26;20596;-71
2024/04/13 00:41:03;;;;;;;17.40;7.13;;;9.40;99.90;;;;;;5447083;26;20548;-70
2024/04/13 00:43:33;;;;;;;13.90;7.57;;;9.30;99.90;;;;;;5446646;26;20822;-70
2024/04/13 00:46:07;;;;;;;14.87;8.47;;;9.30;99.90;;;;;;5447183;26;20467;-70
2024/04/13 00:48:40;;;;;;;13.57;7.30;;;9.40;99.90;;;;;;5446729;26;21039;-70
2024/04/13 00:51:12;;;;;;;15.83;8.07;;;9.40;99.90;;;;;;5447096;26;20613;-70
2024/04/13 00:53:44;;;;;;;18.20;7.70;;;9.20;99.90;;;;;;5446751;26;20545;-70
2024/04/13 00:56:11;;;;;;;16.10;7.80;;;9.00;99.90;;;;;;5447032;26;20576;-68
2024/04/13 00:58:43;;;;;;;15.20;9.00;;;8.90;99.90;;;;;;5446839;26;20495;-70
2024/04/13 01:01:13;;;;;;;15.80;8.57;;;8.90;99.90;;;;;;5447542;26;20472;-69
2024/04/13 01:03:46;;;;;;;17.17;9.00;;;8.90;99.90;;;;;;5447120;26;20524;-70
2024/04/13 01:06:14;;;;;;;13.30;7.90;;;8.80;99.90;;;;;;5447133;26;20577;-70
2024/04/13 01:08:44;;;;;;;17.57;7.97;;;8.80;99.90;;;;;;5446406;26;20527;-70
2024/04/13 01:11:12;;;;;;;13.67;8.07;;;8.80;99.90;;;;;;5446932;26;20518;-69
2024/04/13 01:13:43;;;;;;;14.87;8.30;;;8.80;99.90;;;;;;5446263;26;20804;-70
2024/04/13 01:16:10;;;;;;;13.07;7.70;;;8.90;99.90;;;;;;5446773;26;20469;-70
2024/04/13 01:18:40;;;;;;;12.57;7.73;;;8.90;99.90;;;;;;5446441;26;20477;-70
2024/04/13 01:21:10;;;;;;;14.87;8.37;;;8.90;99.90;;;;;;5446852;26;20466;-70
2024/04/13 01:23:46;;;;;;;13.80;8.37;;;8.80;99.90;;;;;;5445927;26;21237;-70
2024/04/13 01:26:16;;;;;;;16.33;8.87;;;8.70;99.90;;;;;;5434666;26;20463;-70
2024/04/13 01:28:47;;;;;;;13.80;7.90;;;8.90;99.90;;;;;;5446573;26;20530;-70
2024/04/13 01:31:14;;;;;;;13.90;8.43;;;8.80;99.90;;;;;;5446746;26;20467;-70
2024/04/13 01:33:44;;;;;;;13.90;8.50;;;8.70;99.90;;;;;;5446531;26;20474;-69
2024/04/13 01:36:11;;;;;;;13.67;9.07;;;8.50;99.90;;;;;;5447002;26;20879;-70
2024/04/13 01:38:40;;;;;;;14.17;9.10;;;8.50;99.90;;;;;;5446263;26;20483;-70
2024/04/13 01:41:07;;;;;;;14.00;8.40;;;8.40;99.90;;;;;;5446724;26;20532;-70
2024/04/13 01:43:40;;;;;;;15.27;9.00;;;8.40;99.90;;;;;;5446254;26;20571;-70
2024/04/13 01:46:07;;;;;;;15.00;8.43;;;8.50;99.90;;;;;;5446430;26;20807;-70
2024/04/13 01:48:37;;;;;;;17.50;8.47;;;8.60;99.90;;;;;;5445555;26;20481;-71
2024/04/13 01:51:05;;;;;;;15.50;9.30;;;8.50;99.90;;;;;;5446562;26;20539;-70
2024/04/13 01:53:34;;;;;;;14.20;8.43;;;8.40;99.90;;;;;;5440991;26;20511;-70
2024/04/13 01:56:02;;;;;;;13.60;8.30;;;8.40;99.90;;;;;;5445804;26;20456;-70
2024/04/13 01:58:31;;;;;;;13.40;8.43;;;8.60;99.90;;;;;;5445522;26;20527;-69
2024/04/13 02:01:09;;;;;;;15.00;8.70;;;8.80;99.90;;;;;;5446012;26;20474;-68
2024/04/13 02:03:37;;;;;;;14.30;8.37;;;8.80;99.90;;;;;;5446185;26;20854;-70
2024/04/13 02:06:09;;;;;;;17.20;9.37;;;8.80;99.90;;;;;;5446780;26;20534;-70
2024/04/13 02:08:36;;;;;;;12.80;7.70;;;8.90;99.90;;;;;;5447172;26;20528;-69
2024/04/13 02:11:07;;;;;;;15.63;9.17;;;8.80;99.90;;;;;;5447465;26;20474;-70
2024/04/13 02:13:34;;;;;;;13.43;9.00;;;8.80;99.90;;;;;;5446991;26;20467;-70
2024/04/13 02:16:04;;;;;;;14.13;8.70;;;8.90;99.90;;;;;;5447397;26;20514;-69
2024/04/13 02:18:34;;;;;;;15.40;9.20;;;8.80;99.90;;;;;;5447024;26;20469;-70
2024/04/13 02:21:05;;;;;;;12.50;7.90;;;8.60;99.90;;;;;;5447645;26;20534;-70
2024/04/13 02:23:32;;;;;;;14.07;8.23;;;8.50;99.90;;;;;;5447119;26;20466;-70
2024/04/13 02:26:02;;;;;;;16.30;7.60;;;8.40;99.90;;;;;;5447309;26;20463;-70
2024/04/13 02:28:29;;;;;;;14.70;8.43;;;8.40;99.90;;;;;;5438606;26;20482;-71
2024/04/13 02:30:59;;;;;;;12.60;7.47;;;8.40;99.90;;;;;;5447262;26;20479;-70
2024/04/13 02:33:26;;;;;;;14.97;7.80;;;8.30;99.90;;;;;;5446015;26;20526;-69
2024/04/13 02:36:06;;;;;;;13.50;8.07;;;8.30;99.90;;;;;;5445028;26;20511;-70
2024/04/13 02:38:33;;;;;;;13.10;8.47;;;8.30;99.90;;;;;;5446390;26;20477;-71
2024/04/13 02:41:03;;;;;;;19.27;7.50;;;8.20;99.90;;;;;;5446945;26;20466;-69
2024/04/13 02:43:31;;;;;;;12.87;7.80;;;8.10;99.90;;;;;;5446030;26;20466;-71
2024/04/13 02:46:07;;;;;;;14.50;6.80;;;8.20;99.90;;;;;;5446642;26;20465;-70
2024/04/13 02:48:35;;;;;;;14.20;7.60;;;8.10;99.90;;;;;;5446189;26;20565;-70
2024/04/13 02:51:08;;;;;;;15.07;7.80;;;8.10;99.90;;;;;;5446326;26;21050;-70
2024/04/13 02:53:37;;;;;;;13.53;8.03;;;8.20;99.90;;;;;;5445687;26;20519;-70
2024/04/13 02:56:08;;;;;;;14.73;7.23;;;8.30;99.90;;;;;;5446606;26;20581;-69
2024/04/13 02:58:35;;;;;;;11.87;7.00;;;8.30;99.90;;;;;;5446502;26;20528;-69
2024/04/13 03:01:06;;;;;;;15.60;7.30;;;8.20;99.90;;;;;;5446222;26;20463;-70
2024/04/13 03:03:34;;;;;;;16.27;7.50;;;8.30;99.90;;;;;;5446659;26;21030;-70
2024/04/13 03:06:08;;;;;;;15.33;7.50;;;8.40;99.90;;;;;;5445784;26;20479;-70
2024/04/13 03:08:36;;;;;;;13.87;7.40;;;8.30;99.90;;;;;;5446409;26;21462;-71
2024/04/13 03:11:08;;;;;;;13.53;7.23;;;8.30;99.90;;;;;;5446252;26;20876;-68
2024/04/13 03:13:36;;;;;;;14.03;7.30;;;8.20;99.90;;;;;;5446399;26;20533;-69
2024/04/13 03:16:08;;;;;;;13.97;8.23;;;8.20;99.90;;;;;;5446877;26;20579;-69
2024/04/13 03:18:38;;;;;;;16.50;7.70;;;8.40;99.90;;;;;;5446238;26;21054;-69
2024/04/13 03:21:11;;;;;;;15.20;8.20;;;8.40;99.90;;;;;;5445984;26;20470;-69
2024/04/13 03:23:40;;;;;;;13.50;7.70;;;8.30;99.90;;;;;;5445660;26;20461;-69
2024/04/13 03:26:10;;;;;;;12.13;7.47;;;8.20;99.90;;;;;;5445715;26;20881;-70
2024/04/13 03:28:37;;;;;;;14.37;7.60;;;8.00;99.90;;;;;;5445909;26;20533;-69
2024/04/13 03:31:07;;;;;;;13.40;7.63;;;7.90;99.90;;;;;;5446248;26;20458;-70
2024/04/13 03:33:34;;;;;;;13.97;8.07;;;7.80;99.90;;;;;;5445605;26;20529;-70
2024/04/13 03:36:04;;;;;;;13.37;7.40;;;7.70;99.90;;;;;;5445473;26;20514;-69
2024/04/13 03:38:37;;;;;;;12.67;7.30;;;7.70;99.90;;;;;;5445313;26;20467;-69
2024/04/13 03:41:06;;;;;;;11.57;7.30;;;7.60;99.90;;;;;;5445685;26;21027;-70
2024/04/13 03:43:37;;;;;;;13.00;8.00;;;7.70;99.90;;;;;;5431058;26;20465;-69
2024/04/13 03:46:05;;;;;;;16.50;8.00;;;7.90;99.90;;;;;;5437724;26;20475;-70
2024/04/13 03:48:38;;;;;;;13.30;7.53;;;8.10;99.90;;;;;;5444771;26;20470;-70
2024/04/13 03:51:06;;;;;;;14.27;7.77;;;8.10;99.90;;;;;;5446043;26;20478;-68
2024/04/13 03:53:39;;;;;;;13.00;7.70;;;8.00;99.90;;;;;;5443588;26;20550;-69
2024/04/13 03:56:06;;;;;;;13.73;7.93;;;7.80;99.90;;;;;;5439126;26;20519;-69
2024/04/13 03:58:36;;;;;;;12.77;8.63;;;7.70;99.90;;;;;;5439014;26;20483;-69
2024/04/13 04:01:04;;;;;;;15.00;8.57;;;7.70;99.90;;;;;;5446170;26;20932;-69
2024/04/13 04:03:35;;;;;;;14.83;7.40;;;7.70;99.90;;;;;;5445899;26;20471;-69
2024/04/13 04:06:04;;;;;;;12.40;7.10;;;7.70;99.90;;;;;;5446550;26;20587;-69
2024/04/13 04:08:34;;;;;;;13.70;6.87;;;7.80;99.90;;;;;;5445365;26;20486;-69
2024/04/13 04:11:04;;;;;;;14.03;9.73;;;7.70;99.90;;;;;;5445854;26;20467;-70
2024/04/13 04:13:33;;;;;;;12.53;7.80;;;7.60;99.90;;;;;;5445680;26;20521;-69
2024/04/13 04:16:00;;;;;;;13.40;8.57;;;7.70;99.90;;;;;;5445478;26;20465;-69
2024/04/13 04:18:30;;;;;;;15.30;8.67;;;7.80;99.90;;;;;;5444682;26;21074;-70
2024/04/13 04:20:57;;;;;;;16.00;8.60;;;7.80;99.90;;;;;;5445344;26;20892;-70
2024/04/13 04:23:27;;;;;;;14.00;9.50;;;7.70;99.90;;;;;;5444712;26;20474;-69
2024/04/13 04:25:54;;;;;;;15.33;9.50;;;7.70;99.90;;;;;;5444984;26;20450;-70
2024/04/13 04:28:27;;;;;;;13.40;9.03;;;7.70;99.90;;;;;;5444433;26;20473;-69
2024/04/13 04:30:54;;;;;;;16.87;9.80;;;7.80;99.90;;;;;;5444808;26;20590;-70
2024/04/13 04:33:24;;;;;;;14.57;9.60;;;7.70;99.90;;;;;;5444417;26;21027;-70
2024/04/13 04:35:52;;;;;;;14.60;8.93;;;7.70;99.90;;;;;;5444931;26;20577;-69
2024/04/13 04:38:23;;;;;;;13.20;8.00;;;7.60;99.90;;;;;;5444332;26;20512;-68
2024/04/13 04:40:50;;;;;;;14.00;7.33;;;7.70;99.90;;;;;;5443499;26;20463;-70
2024/04/13 04:43:19;;;;;;;12.60;7.97;;;7.70;99.90;;;;;;5443805;26;21095;-69
2024/04/13 04:45:49;;;;;;;17.73;8.30;;;7.70;99.90;;;;;;5445003;26;21214;-70
2024/04/13 04:48:19;;;;;;;13.73;7.97;;;7.70;99.90;;;;;;5436757;26;21078;-68
2024/04/13 04:50:56;;;;;;;16.03;8.40;;;7.60;99.90;;;;;;5444603;26;20551;-69
2024/04/13 04:53:26;;;;;;;12.50;8.40;;;7.70;99.90;;;;;;5443555;26;20811;-69
2024/04/13 04:55:54;;;;;;;15.00;9.10;;;7.80;99.90;;;;;;5445058;26;20536;-70
2024/04/13 04:58:24;;;;;;;13.97;8.83;;;7.80;99.90;;;;;;5443895;26;20462;-69
2024/04/13 05:00:54;;;;;;;14.63;8.50;;;7.90;99.90;;;;;;5448515;26;20552;-70
2024/04/13 05:03:24;;;;;;;13.70;7.60;;;8.00;99.90;;;;;;5447878;26;21013;-69
2024/04/13 05:05:52;;;;;;;12.70;7.00;;;8.00;99.90;;;;;;5448104;26;20526;-70
2024/04/13 05:08:21;;;;;;;12.40;6.80;;;8.00;99.90;;;;;;5447147;26;20466;-67
2024/04/13 05:10:48;;;;;;;13.23;7.23;;;8.00;99.90;;;;;;5447699;26;20522;-69
2024/04/13 05:13:19;;;;;;;14.20;6.60;;;8.10;99.90;;;;;;5447858;26;20466;-70
2024/04/13 05:15:46;;;;;;;13.57;7.70;;;8.20;99.90;;;;;;5447844;26;20869;-70
2024/04/13 05:18:18;;;;;;;13.13;7.63;;;8.20;99.90;;;;;;5447472;26;20474;-69
2024/04/13 05:20:45;;;;;;;13.47;7.90;;;8.30;99.90;;;;;;5447842;26;20563;-70
2024/04/13 05:23:16;;;;;;;13.10;7.43;;;8.20;99.90;;;;;;5447461;26;20580;-70
2024/04/13 05:25:44;;;;;;;11.90;7.07;;;8.10;99.90;;;;;;5447841;26;20474;-69
2024/04/13 05:28:13;;;;;;;13.03;8.33;;;8.20;99.90;;;;;;5447560;26;20523;-70
2024/04/13 05:30:47;;;;;;;16.33;9.80;;;8.10;99.90;;;;;;5448084;26;21080;-69
2024/04/13 05:33:19;;;;;;;15.40;8.80;;;8.20;99.90;;;;;;5447282;26;20463;-70
2024/04/13 05:35:48;;;;;;;13.03;8.10;;;8.20;99.90;;;;;;5448310;26;20545;-70
2024/04/13 05:38:18;;;;;;;12.73;7.43;;;8.20;99.90;;;;;;5447097;26;20510;-70
2024/04/13 05:40:45;;;;;;;14.00;8.87;;;8.10;99.90;;;;;;5448153;26;20525;-71
2024/04/13 05:43:16;;;;;;;12.67;7.87;;;8.10;99.90;;;;;;5447189;26;20527;-70
2024/04/13 05:45:43;;;;;;;14.40;8.80;;;8.30;99.90;;;;;;5447058;26;20811;-69
2024/04/13 05:48:14;;;;;;;14.10;8.40;;;8.20;99.90;;;;;;5447304;26;20476;-70
2024/04/13 05:50:51;;;;;;;17.23;9.50;;;8.20;99.90;;;;;;5447366;26;21080;-70
2024/04/13 05:53:25;;;;;;;16.63;8.67;;;8.30;99.90;;;;;;5446590;26;20476;-70
2024/04/13 05:55:52;;;;;;;14.83;8.53;;;8.40;99.90;;;;;;5447538;26;20516;-69
2024/04/13 05:58:22;;;;;;;13.63;8.40;;;8.40;99.90;;;;;;5446938;26;20509;-69
2024/04/13 06:00:49;;;;;;;14.03;8.13;;;8.40;99.90;;;;;;5447263;26;20466;-71
2024/04/13 06:03:19;;;;;;;14.07;8.33;;;8.70;99.90;;;;;;5446917;26;21150;-70
2024/04/13 06:05:51;;;;;;;13.03;8.87;;;8.80;99.90;;;;;;5447709;26;20581;-69
2024/04/13 06:08:18;;;;;;;14.80;9.43;;;9.00;99.90;;;;;;5447304;26;20533;-69
2024/04/13 06:10:48;;;;;;;13.37;8.60;;;9.20;99.90;;;;;;5447620;26;20473;-70
2024/04/13 06:13:16;;;;;;;14.77;8.80;;;9.30;99.90;;;;;;5446976;26;20593;-69
2024/04/13 06:15:47;;;;;;;13.37;7.73;;;9.50;99.90;;;;;;5447391;26;20521;-68
2024/04/13 06:18:15;;;;;;;13.00;7.73;;;9.70;99.90;;;;;;5438615;26;20481;-69
2024/04/13 06:20:46;;;;;;;13.67;8.00;;;9.80;99.90;;;;;;5447201;26;21069;-69
2024/04/13 06:23:17;;;;;;;13.57;8.33;;;9.80;99.90;;;;;;5446264;26;21121;-69
2024/04/13 06:25:48;;;;;;;14.83;8.40;;;10.00;99.90;;;;;;5447555;26;20465;-70
2024/04/13 06:28:16;;;;;;;14.10;8.57;;;10.10;99.90;;;;;;5446992;26;20479;-70
2024/04/13 06:30:45;;;;;;;13.90;8.77;;;10.20;99.90;;;;;;5447773;26;20471;-70
2024/04/13 06:33:13;;;;;;;14.83;8.87;;;10.30;99.90;;;;;;5446516;26;21149;-71
2024/04/13 06:35:43;;;;;;;15.33;9.50;;;10.40;99.90;;;;;;5447028;26;20455;-69
2024/04/13 06:38:10;;;;;;;13.40;8.60;;;10.60;99.90;;;;;;5446865;26;20478;-69
2024/04/13 06:40:43;;;;;;;18.37;8.70;;;10.60;99.90;;;;;;5446588;26;20879;-70
2024/04/13 06:43:10;;;;;;;14.03;8.10;;;10.70;99.90;;;;;;5446687;26;20515;-71
2024/04/13 06:45:40;;;;;;;15.80;8.97;;;10.90;99.90;;;;;;5446787;26;20515;-69
2024/04/13 06:48:07;;;;;;;13.40;7.90;;;11.00;99.90;;;;;;5444757;26;20531;-68
2024/04/13 06:50:37;;;;;;;13.27;8.57;;;11.30;99.90;;;;;;5444634;26;20623;-69
2024/04/13 06:53:05;;;;;;;13.50;7.50;;;11.40;99.90;;;;;;5445207;26;21002;-69
2024/04/13 06:55:34;;;;;;;13.80;8.30;;;11.60;99.90;;;;;;5444445;26;20923;-71
2024/04/13 06:58:04;;;;;;;11.87;7.50;;;11.70;99.90;;;;;;5445370;26;20500;-69
2024/04/13 07:00:35;;;;;;;13.17;7.33;;;11.70;99.90;;;;;;5446075;26;20455;-71
2024/04/13 07:03:03;;;;;;;12.60;7.80;;;11.80;99.90;;;;;;5443696;26;20890;-71
2024/04/13 07:05:33;;;;;;;13.00;7.90;;;11.90;99.90;;;;;;5444358;26;20335;-71
2024/04/13 07:08:00;;;;;;;14.60;8.27;;;12.10;99.90;;;;;;5444499;26;20463;-71
2024/04/13 07:10:29;;;;;;;15.10;7.20;;;12.20;99.90;;;;;;5444015;26;21094;-70
2024/04/13 07:12:57;;;;;;;13.97;10.07;;;12.20;99.90;;;;;;5443537;26;20468;-70
2024/04/13 07:15:29;;;;;;;11.70;7.53;;;12.30;99.90;;;;;;5441586;26;20470;-69
2024/04/13 07:17:56;;;;;;;12.63;7.20;;;12.50;99.90;;;;;;5442674;26;20587;-69
2024/04/13 07:20:26;;;;;;;12.20;7.47;;;12.60;99.90;;;;;;5435561;26;20464;-70
2024/04/13 07:22:53;;;;;;;11.40;7.40;;;12.80;99.90;;;;;;5441901;26;20560;-70
2024/04/13 07:25:22;;;;;;;14.10;7.53;;;13.00;99.90;;;;;;5442442;26;20514;-70
2024/04/13 07:27:49;;;;;;;11.30;6.63;;;13.50;99.90;;;;;;5444230;26;20521;-70
2024/04/13 07:30:19;;;;;;;10.10;6.70;;;13.80;99.90;;;;;;5444833;26;20481;-70
2024/04/13 07:32:49;;;;;;;12.67;8.77;;;13.80;99.90;;;;;;5445021;26;20464;-71
2024/04/13 07:35:19;;;;;;;11.27;6.30;;;13.90;99.90;;;;;;5445135;26;20472;-71
2024/04/13 07:37:46;;;;;;;10.33;6.30;;;14.00;99.90;;;;;;5443394;26;20482;-68
2024/04/13 07:40:16;;;;;;;15.47;6.90;;;14.10;99.90;;;;;;5442367;26;20472;-70
2024/04/13 07:42:43;;;;;;;12.13;6.73;;;14.20;99.90;;;;;;5438706;26;20473;-70
2024/04/13 07:45:13;;;;;;;17.23;7.70;;;14.30;99.90;;;;;;5443542;26;20475;-70
2024/04/13 07:47:40;;;;;;;17.10;6.93;;;14.50;99.90;;;;;;5444681;26;20863;-71
2024/04/13 07:50:12;;;;;;;17.57;7.60;;;14.60;99.90;;;;;;5443418;26;20475;-69
2024/04/13 07:52:39;;;;;;;20.10;7.57;;;14.70;99.90;;;;;;5444557;26;20600;-69
2024/04/13 07:55:09;;;;;;;11.80;6.47;;;14.80;99.90;;;;;;5445440;26;20539;-67
2024/04/13 07:57:36;;;;;;;12.03;7.10;;;14.90;99.90;;;;;;5444449;26;21088;-71
2024/04/13 08:00:08;;;;;;;10.80;5.50;;;14.90;99.90;;;;;;5442786;26;20886;-68
2024/04/13 08:02:35;;;;;;;12.05;6.05;;;15.00;99.90;;;;;;5442167;26;20365;-74
2024/04/13 08:05:07;;;;;;;11.00;5.80;;;15.20;99.90;;;;;;5443947;26;20605;-68
2024/04/13 08:07:37;;;;;;;10.57;5.53;;;15.40;99.90;;;;;;5442996;26;20962;-68
2024/04/13 08:10:07;;;;;;;10.50;5.80;;;15.70;99.90;;;;;;5442852;26;20463;-69
2024/04/13 08:12:35;;;;;;;11.00;5.30;;;15.70;99.90;;;;;;5440624;26;20475;-69
2024/04/13 08:15:08;;;;;;;12.07;5.57;;;15.80;99.90;;;;;;5440154;26;20593;-70
2024/04/13 08:17:35;;;;;;;10.10;5.73;;;15.90;99.90;;;;;;5440380;26;20474;-71
2024/04/13 08:20:08;;;;;;;13.63;6.40;;;16.00;99.90;;;;;;5440903;26;20471;-71
2024/04/13 08:22:39;;;;;;;10.60;5.30;;;16.30;99.90;;;;;;5440839;26;20586;-70
2024/04/13 08:25:08;;;;;;;11.60;5.23;;;16.50;99.90;;;;;;5444164;26;20468;-69
2024/04/13 08:27:36;;;;;;;12.37;5.00;;;16.70;99.90;;;;;;5442770;26;20526;-71
2024/04/13 08:30:07;;;;;;;10.03;4.63;;;17.00;99.90;;;;;;5442508;26;20467;-70
2024/04/13 08:32:34;;;;;;;11.93;5.60;;;17.20;99.90;;;;;;5431600;26;20475;-71
2024/04/13 08:35:04;;;;;;;10.23;4.90;;;17.40;99.90;;;;;;5443351;26;20357;-70
2024/04/13 08:37:32;;;;;;;10.63;5.20;;;17.50;99.90;;;;;;5446194;26;20523;-69
2024/04/13 08:40:05;;;;;;;10.57;4.90;;;17.60;99.90;;;;;;5447761;26;20511;-70
2024/04/13 08:42:34;;;;;;;8.87;4.00;;;17.70;99.90;;;;;;5446428;26;20564;-70
2024/04/13 08:45:06;;;;;;;12.17;4.93;;;17.70;99.90;;;;;;5446102;26;20482;-70
2024/04/13 08:47:35;;;;;;;10.60;4.77;;;17.90;99.90;;;;;;5446695;26;20523;-70
2024/04/13 08:50:06;;;;;;;9.93;4.93;;;18.20;99.90;;;;;;5447575;26;20467;-69
2024/04/13 08:52:35;;;;;;;10.77;4.97;;;18.50;99.90;;;;;;5447314;26;20473;-68
2024/04/13 08:55:09;;;;;;;11.70;4.57;;;18.80;97.90;;;;;;5443819;26;20524;-69
2024/04/13 08:57:39;;;;;;;9.87;4.43;;;19.30;94.80;;;;;;5432696;26;20523;-68
2024/04/13 09:00:14;;;;;;;9.90;4.17;;;19.30;96.80;;;;;;5438641;26;20470;-68
2024/04/13 09:02:44;;;;;;;9.13;4.30;;;19.20;94.60;;;;;;5437303;26;20523;-69
2024/04/13 09:05:15;;;;;;;11.77;4.70;;;19.30;93.70;;;;;;5438096;26;20558;-68
2024/04/13 09:07:44;;;;;;;13.90;3.73;;;19.50;92.60;;;;;;5436483;26;20515;-69
2024/04/13 09:10:19;;;;;;;10.57;3.10;;;19.50;94.50;;;;;;5436811;26;20516;-69
2024/04/13 09:12:46;;;;;;;15.10;4.80;;;19.60;91.90;;;;;;5441173;26;20520;-70
2024/04/13 09:15:16;;;;;;;139.83;20.87;;;20.10;89.80;;;;;;5450145;26;20930;-69
2024/04/13 09:17:43;;;;;;;21.10;5.50;;;20.30;91.60;;;;;;5447168;26;20475;-70
2024/04/13 09:20:13;;;;;;;11.60;3.73;;;20.50;91.00;;;;;;5441591;26;20455;-71
2024/04/13 09:22:41;;;;;;;7.93;2.50;;;20.60;90.30;;;;;;5443787;26;21120;-70
2024/04/13 09:25:21;;;;;;;8.53;2.40;;;20.60;90.50;;;;;;5444280;26;20506;-70
2024/04/13 09:28:00;;;;;;;15.10;4.60;;;21.00;89.30;;;;;;5446135;26;21048;-71
2024/04/13 09:30:30;;;;;;;9.53;3.37;;;21.50;86.90;;;;;;5436630;26;20839;-69
2024/04/13 09:33:01;;;;;;;10.77;3.80;;;22.20;88.80;;;;;;5444862;26;20456;-70
2024/04/13 09:35:31;;;;;;;10.70;3.57;;;23.10;75.20;;;;;;5438996;26;20541;-71
2024/04/13 09:37:59;;;;;;;8.80;3.00;;;23.00;73.30;;;;;;5442272;26;20811;-71
2024/04/13 09:40:30;;;;;;;10.40;3.80;;;22.80;74.40;;;;;;5440309;26;20755;-70
2024/04/13 09:43:00;;;;;;;10.37;3.90;;;23.00;72.90;;;;;;5436769;26;20469;-71
2024/04/13 09:45:30;;;;;;;11.60;3.23;;;23.00;70.00;;;;;;5436506;26;20519;-69
2024/04/13 09:47:59;;;;;;;9.80;3.50;;;23.60;68.50;;;;;;5451016;26;20573;-72
2024/04/13 09:50:30;;;;;;;11.20;3.57;;;23.80;67.80;;;;;;5446963;26;20515;-71
2024/04/13 09:53:01;;;;;;;9.20;2.83;;;23.80;71.30;;;;;;5433236;26;20948;-68
2024/04/13 09:55:31;;;;;;;9.43;2.50;;;23.90;68.40;;;;;;5445453;26;20527;-69
2024/04/13 09:58:04;;;;;;;9.83;2.70;;;23.80;65.00;;;;;;5432382;26;20468;-69
2024/04/13 10:00:34;;;;;;;11.70;3.13;;;23.70;65.30;;;;;;5446188;26;20460;-69
2024/04/13 10:03:02;;;;;;;8.90;2.80;;;23.80;64.20;;;;;;5445516;26;20475;-71
2024/04/13 10:05:35;;;;;;;9.77;3.00;;;24.30;60.10;;;;;;5445753;26;20459;-71
2024/04/13 10:08:05;;;;;;;9.80;3.03;;;24.70;60.10;;;;;;5448512;26;20519;-71
2024/04/13 10:10:37;;;;;;;12.60;2.60;;;24.60;58.80;;;;;;5449090;26;20644;-70
2024/04/13 10:13:10;;;;;;;8.83;2.67;;;24.30;60.20;;;;;;5445305;26;20467;-70
2024/04/13 10:15:40;;;;;;;9.43;3.27;;;24.70;62.60;;;;;;5445924;26;20585;-70
2024/04/13 10:18:08;;;;;;;27.50;5.93;;;25.20;62.30;;;;;;5445309;26;21034;-72
2024/04/13 10:20:38;;;;;;;9.17;2.90;;;25.40;62.60;;;;;;5445625;26;20550;-70
2024/04/13 10:23:10;;;;;;;9.93;3.10;;;25.50;57.40;;;;;;5445372;26;20459;-71
2024/04/13 10:25:39;;;;;;;10.10;2.73;;;25.60;56.90;;;;;;5445677;26;20531;-70
2024/04/13 10:28:10;;;;;;;10.90;3.37;;;25.40;57.40;;;;;;5445715;26;20523;-68
2024/04/13 10:30:50;;;;;;;7.70;2.50;;;25.10;57.10;;;;;;5445816;26;20830;-70
2024/04/13 10:33:22;;;;;;;8.00;2.53;;;25.30;57.20;;;;;;5445726;26;20527;-72
2024/04/13 10:35:57;;;;;;;12.67;3.30;;;25.60;56.30;;;;;;5433268;26;20482;-69
2024/04/13 10:38:24;;;;;;;10.90;3.23;;;25.80;57.50;;;;;;5445103;26;20471;-70
2024/04/13 10:40:54;;;;;;;10.27;3.13;;;26.00;56.20;;;;;;5445294;26;20467;-70
2024/04/13 10:43:25;;;;;;;8.40;2.50;;;26.20;53.80;;;;;;5445214;26;20475;-70
2024/04/13 10:45:56;;;;;;;7.33;2.40;;;25.70;54.00;;;;;;5446046;26;20639;-70
2024/04/13 10:48:25;;;;;;;9.07;2.97;;;25.60;54.60;;;;;;5445084;26;20589;-69
2024/04/13 10:50:57;;;;;;;10.43;2.50;;;25.90;54.00;;;;;;5445821;26;20547;-70
2024/04/13 10:53:27;;;;;;;8.20;2.37;;;25.70;57.50;;;;;;5444993;26;21133;-68
2024/04/13 10:55:59;;;;;;;10.47;2.63;;;26.20;55.20;;;;;;5444751;26;20471;-71
2024/04/13 10:58:30;;;;;;;8.20;2.83;;;26.50;57.90;;;;;;5444215;26;20520;-70
2024/04/13 11:01:01;;;;;;;9.13;2.60;;;27.10;55.60;;;;;;5445571;26;20853;-70
2024/04/13 11:03:29;;;;;;;9.70;2.53;;;27.60;54.30;;;;;;5444587;26;20597;-71
2024/04/13 11:06:00;;;;;;;9.23;2.57;;;28.20;53.20;;;;;;5445316;26;20992;-71
2024/04/13 11:08:28;;;;;;;9.10;2.60;;;28.50;51.80;;;;;;5444804;26;20622;-70
2024/04/13 11:10:59;;;;;;;9.37;2.60;;;28.60;48.80;;;;;;5445506;26;20468;-70
2024/04/13 11:13:30;;;;;;;8.30;2.47;;;27.90;49.00;;;;;;5444716;26;20804;-69
2024/04/13 11:16:00;;;;;;;9.50;2.60;;;27.40;49.70;;;;;;5445391;26;20527;-71
2024/04/13 11:18:27;;;;;;;7.13;2.37;;;27.40;50.30;;;;;;5441371;26;20555;-70
2024/04/13 11:21:04;;;;;;;10.77;2.50;;;27.70;50.60;;;;;;5443739;26;20562;-70
2024/04/13 11:23:34;;;;;;;9.20;2.43;;;27.90;50.20;;;;;;5442754;26;20459;-70
2024/04/13 11:26:04;;;;;;;10.33;2.97;;;27.30;51.10;;;;;;5442496;26;20533;-69
2024/04/13 11:28:34;;;;;;;7.80;2.10;;;27.00;50.60;;;;;;5442216;26;20475;-70
2024/04/13 11:31:03;;;;;;;9.90;3.50;;;27.00;51.90;;;;;;5443568;26;20463;-71
2024/04/13 11:33:32;;;;;;;8.70;2.47;;;27.20;51.50;;;;;;5443124;26;20465;-70
2024/04/13 11:36:02;;;;;;;8.57;2.40;;;27.60;51.80;;;;;;5443169;26;20468;-70
2024/04/13 11:38:33;;;;;;;9.50;2.30;;;28.10;49.70;;;;;;5443407;26;20463;-72
2024/04/13 11:41:02;;;;;;;9.30;2.87;;;27.90;49.10;;;;;;5445279;26;20516;-70
2024/04/13 11:43:31;;;;;;;9.60;2.87;;;27.70;49.80;;;;;;5443756;26;20519;-71
2024/04/13 11:46:04;;;;;;;11.13;2.60;;;27.50;49.70;;;;;;5444900;26;20516;-71
2024/04/13 11:48:34;;;;;;;7.83;2.77;;;27.60;49.40;;;;;;5444569;26;20548;-71
2024/04/13 11:51:04;;;;;;;12.10;2.60;;;27.80;49.00;;;;;;5445153;26;20558;-71
2024/04/13 11:53:36;;;;;;;9.37;2.40;;;28.00;49.70;;;;;;5444634;26;21133;-70
2024/04/13 11:56:07;;;;;;;7.73;2.43;;;28.70;50.90;;;;;;5445225;26;20471;-71
2024/04/13 11:58:34;;;;;;;8.50;2.43;;;29.20;49.20;;;;;;5443929;26;20471;-68
2024/04/13 12:01:06;;;;;;;9.23;2.67;;;29.70;47.00;;;;;;5444689;26;21011;-69
2024/04/13 12:03:36;;;;;;;8.23;2.83;;;30.30;47.10;;;;;;5443159;26;21111;-68
2024/04/13 12:06:04;;;;;;;7.37;2.23;;;30.80;47.20;;;;;;5441583;26;20504;-68
2024/04/13 12:08:34;;;;;;;8.93;2.40;;;30.60;45.60;;;;;;5443160;26;20546;-71
2024/04/13 12:11:01;;;;;;;7.17;2.10;;;28.80;47.20;;;;;;5444997;26;20467;-68
2024/04/13 12:13:31;;;;;;;8.10;2.67;;;28.80;50.90;;;;;;5445141;26;20459;-67
2024/04/13 12:15:58;;;;;;;8.33;2.33;;;29.70;47.90;;;;;;5446231;26;20587;-71
2024/04/13 12:18:31;;;;;;;9.10;2.70;;;29.70;45.70;;;;;;5446819;26;20551;-71
2024/04/13 12:20:58;;;;;;;9.70;3.10;;;28.80;46.20;;;;;;5447667;26;20531;-68
2024/04/13 12:23:28;;;;;;;7.63;2.30;;;28.90;49.80;;;;;;5446861;26;20463;-68
2024/04/13 12:25:56;;;;;;;7.63;2.40;;;29.70;50.60;;;;;;5445499;26;20467;-72
2024/04/13 12:28:25;;;;;;;9.00;2.47;;;30.50;47.50;;;;;;5446421;26;21024;-71
2024/04/13 12:30:52;;;;;;;7.53;2.17;;;30.20;44.30;;;;;;5447423;26;20519;-70
2024/04/13 12:33:22;;;;;;;7.33;2.23;;;30.30;47.50;;;;;;5446435;26;20555;-70
2024/04/13 12:35:54;;;;;;;9.43;2.27;;;30.20;46.90;;;;;;5445575;26;20985;-70
2024/04/13 12:38:28;;;;;;;10.80;2.57;;;30.10;46.40;;;;;;5436778;26;20854;-69
2024/04/13 12:40:55;;;;;;;10.90;2.70;;;30.80;46.60;;;;;;5438583;26;20459;-69
2024/04/13 12:43:25;;;;;;;9.63;2.43;;;31.60;47.00;;;;;;5445938;26;20535;-69
2024/04/13 12:45:52;;;;;;;9.00;2.90;;;31.90;42.80;;;;;;5443790;26;20592;-71
2024/04/13 12:48:22;;;;;;;8.00;2.40;;;31.70;46.00;;;;;;5441429;26;21011;-71
2024/04/13 12:50:52;;;;;;;7.37;2.30;;;32.20;43.10;;;;;;5446503;26;21464;-70
2024/04/13 12:53:22;;;;;;;10.27;2.30;;;32.90;43.90;;;;;;5444704;26;20452;-70
2024/04/13 12:55:50;;;;;;;7.40;2.60;;;33.60;42.80;;;;;;5436112;26;20531;-69